sensor_id;sensor_type;location;lat;lon;timestamp;pressure;altitude;pressure_sealevel;temperature;humidity
32735;BME280;19112;51.076;3.706;2023-01-25T00:00:20;103635.47;;;5.18;65.01
32735;BME280;19112;51.076;3.706;2023-01-25T00:02:45;103476.97;;;4.17;64.88
32735;BME280;19112;51.076;3.706;2023-01-25T00:05:11;103366.31;;;3.42;65.57
32735;BME280;19112;51.076;3.706;2023-01-25T00:07:37;103653.84;;;5.19;65.29
32735;BME280;19112;51.076;3.706;2023-01-25T00:10:03;103650.78;;;5.23;65.64
32735;BME280;19112;51.076;3.706;2023-01-25T00:12:29;103674.03;;;5.05;65.74
32735;BME280;19112;51.076;3.706;2023-01-25T00:14:55;103657.50;;;5.04;66.24
32735;BME280;19112;51.076;3.706;2023-01-25T00:17:20;103655.22;;;5.07;65.66
32735;BME280;19112;51.076;3.706;2023-01-25T00:19:46;103609.88;;;4.88;65.56
32735;BME280;19112;51.076;3.706;2023-01-25T00:22:12;103569.88;;;4.53;65.76
32735;BME280;19112;51.076;3.706;2023-01-25T00:24:38;103653.84;;;4.85;66.15
32735;BME280;19112;51.076;3.706;2023-01-25T00:27:04;103607.72;;;4.75;65.69
32735;BME280;19112;51.076;3.706;2023-01-25T00:29:29;103653.84;;;5.19;65.89
32735;BME280;19112;51.076;3.706;2023-01-25T00:32:28;103452.50;;;4.41;64.98
32735;BME280;19112;51.076;3.706;2023-01-25T00:34:57;103605.56;;;5.32;65.24
32735;BME280;19112;51.076;3.706;2023-01-25T00:37:38;103531.34;;;4.92;65.01
32735;BME280;19112;51.076;3.706;2023-01-25T00:40:05;103566.22;;;5.11;64.97
32735;BME280;19112;51.076;3.706;2023-01-25T00:42:31;103613.72;;;5.17;64.70
32735;BME280;19112;51.076;3.706;2023-01-25T00:44:57;103547.56;;;4.72;65.09
32735;BME280;19112;51.076;3.706;2023-01-25T00:47:23;103551.38;;;4.50;65.29
32735;BME280;19112;51.076;3.706;2023-01-25T00:49:49;103636.34;;;4.84;66.03
32735;BME280;19112;51.076;3.706;2023-01-25T00:52:14;103428.44;;;3.74;66.40
32735;BME280;19112;51.076;3.706;2023-01-25T00:54:41;103625.19;;;4.85;66.73
32735;BME280;19112;51.076;3.706;2023-01-25T00:57:07;103631.16;;;4.92;66.84
32735;BME280;19112;51.076;3.706;2023-01-25T00:59:34;103623.94;;;4.90;66.31
32735;BME280;19112;51.076;3.706;2023-01-25T01:02:00;103329.09;;;3.09;66.27
32735;BME280;19112;51.076;3.706;2023-01-25T01:04:26;103579.94;;;4.41;66.50
32735;BME280;19112;51.076;3.706;2023-01-25T01:06:53;103583.34;;;4.57;66.30
32735;BME280;19112;51.076;3.706;2023-01-25T01:09:21;103486.00;;;4.29;66.05
32735;BME280;19112;51.076;3.706;2023-01-25T01:11:47;103617.53;;;5.21;65.52
32735;BME280;19112;51.076;3.706;2023-01-25T01:14:13;103259.84;;;3.25;65.68
32735;BME280;19112;51.076;3.706;2023-01-25T01:16:39;103582.47;;;5.09;65.75
32735;BME280;19112;51.076;3.706;2023-01-25T01:19:05;103572.81;;;4.99;65.43
32735;BME280;19112;51.076;3.706;2023-01-25T01:21:31;103219.06;;;3.15;65.09
32735;BME280;19112;51.076;3.706;2023-01-25T01:23:58;103453.13;;;4.47;65.15
32735;BME280;19112;51.076;3.706;2023-01-25T01:26:23;103509.44;;;4.72;65.38
32735;BME280;19112;51.076;3.706;2023-01-25T01:28:49;103625.78;;;4.99;64.64
32735;BME280;19112;51.076;3.706;2023-01-25T01:31:19;103598.41;;;4.86;65.29
32735;BME280;19112;51.076;3.706;2023-01-25T01:33:51;103624.13;;;5.26;64.89
32735;BME280;19112;51.076;3.706;2023-01-25T01:36:19;103309.84;;;3.75;64.60
32735;BME280;19112;51.076;3.706;2023-01-25T01:38:46;103569.41;;;5.26;64.49
32735;BME280;19112;51.076;3.706;2023-01-25T01:41:12;103568.97;;;5.30;64.50
32735;BME280;19112;51.076;3.706;2023-01-25T01:43:38;103576.16;;;5.33;64.14
32735;BME280;19112;51.076;3.706;2023-01-25T01:46:34;103584.88;;;5.42;64.01
32735;BME280;19112;51.076;3.706;2023-01-25T01:49:25;103473.59;;;4.87;63.89
32735;BME280;19112;51.076;3.706;2023-01-25T01:52:09;103316.84;;;3.93;63.78
32735;BME280;19112;51.076;3.706;2023-01-25T01:57:23;103477.59;;;4.66;64.52
32735;BME280;19112;51.076;3.706;2023-01-25T02:00:02;103578.00;;;5.25;64.69
32735;BME280;19112;51.076;3.706;2023-01-25T02:02:29;103618.88;;;5.52;64.50
32735;BME280;19112;51.076;3.706;2023-01-25T02:04:59;103539.88;;;5.08;64.12
32735;BME280;19112;51.076;3.706;2023-01-25T02:07:35;103613.66;;;5.52;64.54
32735;BME280;19112;51.076;3.706;2023-01-25T02:10:04;103517.84;;;4.87;64.21
32735;BME280;19112;51.076;3.706;2023-01-25T02:12:31;103501.03;;;4.75;64.69
32735;BME280;19112;51.076;3.706;2023-01-25T02:14:57;103613.56;;;5.33;64.43
32735;BME280;19112;51.076;3.706;2023-01-25T02:17:34;103484.00;;;4.79;64.29
32735;BME280;19112;51.076;3.706;2023-01-25T02:20:27;103564.06;;;5.24;64.46
32735;BME280;19112;51.076;3.706;2023-01-25T02:25:46;103556.56;;;5.19;64.64
32735;BME280;19112;51.076;3.706;2023-01-25T02:28:22;103624.88;;;5.51;64.72
32735;BME280;19112;51.076;3.706;2023-01-25T02:30:49;103604.34;;;5.54;64.27
32735;BME280;19112;51.076;3.706;2023-01-25T02:33:16;103611.19;;;5.62;64.14
32735;BME280;19112;51.076;3.706;2023-01-25T02:35:47;103504.34;;;5.00;64.06
32735;BME280;19112;51.076;3.706;2023-01-25T02:38:17;103573.06;;;5.37;64.20
32735;BME280;19112;51.076;3.706;2023-01-25T02:41:09;103515.84;;;5.02;64.30
32735;BME280;19112;51.076;3.706;2023-01-25T02:43:38;103275.75;;;3.80;63.72
32735;BME280;19112;51.076;3.706;2023-01-25T02:46:21;103596.72;;;5.74;63.82
32735;BME280;19112;51.076;3.706;2023-01-25T02:48:48;103519.78;;;5.33;63.56
32735;BME280;19112;51.076;3.706;2023-01-25T02:51:13;103599.19;;;5.82;63.74
32735;BME280;19112;51.076;3.706;2023-01-25T02:53:40;103600.38;;;5.85;63.11
32735;BME280;19112;51.076;3.706;2023-01-25T02:56:06;103603.75;;;5.84;63.55
32735;BME280;19112;51.076;3.706;2023-01-25T02:58:32;103421.09;;;4.83;63.58
32735;BME280;19112;51.076;3.706;2023-01-25T03:00:59;103286.13;;;4.06;63.63
32735;BME280;19112;51.076;3.706;2023-01-25T03:03:25;103584.31;;;5.81;63.40
32735;BME280;19112;51.076;3.706;2023-01-25T03:05:51;103587.66;;;5.79;63.43
32735;BME280;19112;51.076;3.706;2023-01-25T03:08:17;103577.75;;;5.75;63.73
32735;BME280;19112;51.076;3.706;2023-01-25T03:10:42;103378.59;;;4.65;63.76
32735;BME280;19112;51.076;3.706;2023-01-25T03:13:08;103575.56;;;5.80;63.58
32735;BME280;19112;51.076;3.706;2023-01-25T03:15:35;103225.44;;;3.88;63.51
32735;BME280;19112;51.076;3.706;2023-01-25T03:18:01;103452.41;;;5.19;63.43
32735;BME280;19112;51.076;3.706;2023-01-25T03:20:27;103536.38;;;5.61;63.64
32735;BME280;19112;51.076;3.706;2023-01-25T03:22:54;103571.91;;;5.78;63.77
32735;BME280;19112;51.076;3.706;2023-01-25T03:25:20;103567.25;;;5.84;63.69
32735;BME280;19112;51.076;3.706;2023-01-25T03:27:45;103526.25;;;5.64;63.50
32735;BME280;19112;51.076;3.706;2023-01-25T03:30:11;103525.66;;;5.58;63.74
32735;BME280;19112;51.076;3.706;2023-01-25T03:32:37;103533.16;;;5.64;62.94
32735;BME280;19112;51.076;3.706;2023-01-25T03:35:04;103468.22;;;5.12;63.28
32735;BME280;19112;51.076;3.706;2023-01-25T03:37:30;103564.34;;;5.36;63.92
32735;BME280;19112;51.076;3.706;2023-01-25T03:39:59;103550.72;;;5.30;64.42
32735;BME280;19112;51.076;3.706;2023-01-25T03:42:24;103510.47;;;5.00;64.65
32735;BME280;19112;51.076;3.706;2023-01-25T03:44:50;103474.84;;;4.82;64.60
32735;BME280;19112;51.076;3.706;2023-01-25T03:47:16;103393.28;;;4.47;64.44
32735;BME280;19112;51.076;3.706;2023-01-25T03:49:42;103555.47;;;5.25;64.80
32735;BME280;19112;51.076;3.706;2023-01-25T03:52:08;103546.88;;;5.26;64.69
32735;BME280;19112;51.076;3.706;2023-01-25T03:54:34;103145.59;;;3.08;64.60
32735;BME280;19112;51.076;3.706;2023-01-25T03:57:00;103270.09;;;3.67;64.46
32735;BME280;19112;51.076;3.706;2023-01-25T03:59:26;103535.28;;;5.23;64.87
32735;BME280;19112;51.076;3.706;2023-01-25T04:01:52;103500.88;;;4.91;65.05
32735;BME280;19112;51.076;3.706;2023-01-25T04:04:17;103395.63;;;4.27;64.67
32735;BME280;19112;51.076;3.706;2023-01-25T04:06:43;103459.41;;;4.49;64.93
32735;BME280;19112;51.076;3.706;2023-01-25T04:09:09;103466.28;;;4.49;65.18
32735;BME280;19112;51.076;3.706;2023-01-25T04:11:35;103505.91;;;4.63;65.54
32735;BME280;19112;51.076;3.706;2023-01-25T04:14:01;103542.50;;;4.82;65.38
32735;BME280;19112;51.076;3.706;2023-01-25T04:16:26;103542.97;;;4.69;65.69
32735;BME280;19112;51.076;3.706;2023-01-25T04:18:55;103418.09;;;4.00;65.86
32735;BME280;19112;51.076;3.706;2023-01-25T04:21:20;103385.66;;;3.88;65.18
32735;BME280;19112;51.076;3.706;2023-01-25T04:23:46;103428.50;;;4.35;64.70
32735;BME280;19112;51.076;3.706;2023-01-25T04:26:15;103529.78;;;4.94;65.32
32735;BME280;19112;51.076;3.706;2023-01-25T04:28:41;103533.00;;;5.00;65.17
32735;BME280;19112;51.076;3.706;2023-01-25T04:31:06;103453.59;;;4.34;64.40
32735;BME280;19112;51.076;3.706;2023-01-25T04:33:33;103539.00;;;4.82;64.80
32735;BME280;19112;51.076;3.706;2023-01-25T04:35:59;103539.72;;;4.46;65.00
32735;BME280;19112;51.076;3.706;2023-01-25T04:38:25;103279.16;;;2.94;65.73
32735;BME280;19112;51.076;3.706;2023-01-25T04:40:51;103541.09;;;4.34;66.53
32735;BME280;19112;51.076;3.706;2023-01-25T04:43:18;103332.34;;;3.24;66.17
32735;BME280;19112;51.076;3.706;2023-01-25T04:45:44;103538.81;;;4.54;66.15
32735;BME280;19112;51.076;3.706;2023-01-25T04:48:11;103450.81;;;4.24;65.42
32735;BME280;19112;51.076;3.706;2023-01-25T04:50:39;103396.69;;;4.11;65.34
32735;BME280;19112;51.076;3.706;2023-01-25T04:53:06;103300.97;;;3.64;64.90
32735;BME280;19112;51.076;3.706;2023-01-25T04:55:33;103530.25;;;4.98;65.04
32735;BME280;19112;51.076;3.706;2023-01-25T04:58:00;103449.63;;;4.38;64.73
32735;BME280;19112;51.076;3.706;2023-01-25T05:00:27;103534.06;;;4.67;65.11
32735;BME280;19112;51.076;3.706;2023-01-25T05:02:53;103531.81;;;4.53;65.35
32735;BME280;19112;51.076;3.706;2023-01-25T05:05:19;103409.22;;;3.89;65.90
32735;BME280;19112;51.076;3.706;2023-01-25T05:07:45;103452.94;;;4.19;65.48
32735;BME280;19112;51.076;3.706;2023-01-25T05:10:11;103519.72;;;4.80;65.42
32735;BME280;19112;51.076;3.706;2023-01-25T05:12:37;103322.06;;;3.76;65.11
32735;BME280;19112;51.076;3.706;2023-01-25T05:15:04;103463.06;;;4.51;65.53
32735;BME280;19112;51.076;3.706;2023-01-25T05:17:30;103511.88;;;4.97;65.42
32735;BME280;19112;51.076;3.706;2023-01-25T05:19:55;103516.94;;;4.95;65.05
32735;BME280;19112;51.076;3.706;2023-01-25T05:22:22;103392.25;;;4.28;65.25
32735;BME280;19112;51.076;3.706;2023-01-25T05:24:48;103373.59;;;4.32;65.04
32735;BME280;19112;51.076;3.706;2023-01-25T05:27:19;103464.38;;;4.99;64.73
32735;BME280;19112;51.076;3.706;2023-01-25T05:29:45;103511.97;;;5.24;64.30
32735;BME280;19112;51.076;3.706;2023-01-25T05:32:17;103510.75;;;5.21;64.70
32735;BME280;19112;51.076;3.706;2023-01-25T05:34:44;103528.25;;;5.13;64.11
32735;BME280;19112;51.076;3.706;2023-01-25T05:37:13;103463.47;;;4.99;63.61
32735;BME280;19112;51.076;3.706;2023-01-25T05:39:39;103505.84;;;5.24;63.86
32735;BME280;19112;51.076;3.706;2023-01-25T05:42:13;103479.41;;;5.02;63.70
32735;BME280;19112;51.076;3.706;2023-01-25T05:44:39;103415.63;;;4.62;63.79
32735;BME280;19112;51.076;3.706;2023-01-25T05:47:06;103210.06;;;3.47;63.15
32735;BME280;19112;51.076;3.706;2023-01-25T05:49:32;103219.66;;;3.56;63.21
32735;BME280;19112;51.076;3.706;2023-01-25T05:51:57;103413.16;;;4.72;63.13
32735;BME280;19112;51.076;3.706;2023-01-25T05:54:23;103500.66;;;5.24;63.19
32735;BME280;19112;51.076;3.706;2023-01-25T05:56:49;103417.91;;;4.77;63.60
32735;BME280;19112;51.076;3.706;2023-01-25T05:59:15;103496.81;;;5.20;63.63
32735;BME280;19112;51.076;3.706;2023-01-25T06:01:42;103356.00;;;4.38;63.52
32735;BME280;19112;51.076;3.706;2023-01-25T06:04:15;103404.75;;;4.66;63.23
32735;BME280;19112;51.076;3.706;2023-01-25T06:06:41;103508.03;;;5.02;63.63
32735;BME280;19112;51.076;3.706;2023-01-25T06:09:09;103347.16;;;4.01;63.85
32735;BME280;19112;51.076;3.706;2023-01-25T06:11:35;103460.47;;;4.34;63.87
32735;BME280;19112;51.076;3.706;2023-01-25T06:14:01;103459.09;;;4.11;65.22
32735;BME280;19112;51.076;3.706;2023-01-25T06:16:27;103429.19;;;3.82;65.34
32735;BME280;19112;51.076;3.706;2023-01-25T06:18:53;103512.03;;;4.38;65.69
32735;BME280;19112;51.076;3.706;2023-01-25T06:21:19;103472.88;;;4.28;65.44
32735;BME280;19112;51.076;3.706;2023-01-25T06:23:44;103503.31;;;4.72;64.55
32735;BME280;19112;51.076;3.706;2023-01-25T06:26:13;103457.41;;;4.64;64.66
32735;BME280;19112;51.076;3.706;2023-01-25T06:28:39;103273.75;;;3.78;64.15
32735;BME280;19112;51.076;3.706;2023-01-25T06:31:17;103410.44;;;4.45;64.53
32735;BME280;19112;51.076;3.706;2023-01-25T06:33:50;103482.97;;;4.85;64.59
32735;BME280;19112;51.076;3.706;2023-01-25T06:36:17;103390.72;;;4.30;64.14
32735;BME280;19112;51.076;3.706;2023-01-25T06:38:48;103186.38;;;3.18;64.53
32735;BME280;19112;51.076;3.706;2023-01-25T06:41:15;103356.16;;;4.22;64.26
32735;BME280;19112;51.076;3.706;2023-01-25T06:43:41;103485.72;;;4.95;64.28
32735;BME280;19112;51.076;3.706;2023-01-25T06:46:08;103284.47;;;3.89;63.78
32735;BME280;19112;51.076;3.706;2023-01-25T06:48:36;103133.09;;;3.04;63.91
32735;BME280;19112;51.076;3.706;2023-01-25T06:51:06;103497.31;;;5.08;63.85
32735;BME280;19112;51.076;3.706;2023-01-25T06:53:35;103262.91;;;3.90;63.75
32735;BME280;19112;51.076;3.706;2023-01-25T06:56:20;103367.41;;;4.57;63.51
32735;BME280;19112;51.076;3.706;2023-01-25T06:58:47;103418.06;;;4.69;63.61
32735;BME280;19112;51.076;3.706;2023-01-25T07:01:20;103420.97;;;4.72;63.74
32735;BME280;19112;51.076;3.706;2023-01-25T07:03:50;103497.28;;;5.16;63.61
32735;BME280;19112;51.076;3.706;2023-01-25T07:06:16;103504.94;;;5.15;63.65
32735;BME280;19112;51.076;3.706;2023-01-25T07:08:42;103491.19;;;4.90;63.48
32735;BME280;19112;51.076;3.706;2023-01-25T07:11:10;103436.75;;;4.57;63.39
32735;BME280;19112;51.076;3.706;2023-01-25T07:13:40;103328.50;;;3.79;63.80
32735;BME280;19112;51.076;3.706;2023-01-25T07:16:11;103462.31;;;4.61;63.60
32735;BME280;19112;51.076;3.706;2023-01-25T07:18:37;103499.97;;;4.90;63.75
32735;BME280;19112;51.076;3.706;2023-01-25T07:21:16;103327.28;;;4.02;63.38
32735;BME280;19112;51.076;3.706;2023-01-25T07:23:42;103268.41;;;3.76;63.50
32735;BME280;19112;51.076;3.706;2023-01-25T07:26:30;103434.75;;;4.80;63.48
32735;BME280;19112;51.076;3.706;2023-01-25T07:28:57;103358.72;;;4.31;63.81
32735;BME280;19112;51.076;3.706;2023-01-25T07:31:24;103479.41;;;5.02;63.10
32735;BME280;19112;51.076;3.706;2023-01-25T07:33:53;103146.38;;;3.15;63.56
32735;BME280;19112;51.076;3.706;2023-01-25T07:36:20;103403.38;;;4.61;63.65
32735;BME280;19112;51.076;3.706;2023-01-25T07:38:46;103478.19;;;5.07;63.34
32735;BME280;19112;51.076;3.706;2023-01-25T07:41:13;103375.09;;;4.47;63.30
32735;BME280;19112;51.076;3.706;2023-01-25T07:43:41;103399.69;;;4.68;63.64
32735;BME280;19112;51.076;3.706;2023-01-25T07:46:09;103428.00;;;4.82;63.53
32735;BME280;19112;51.076;3.706;2023-01-25T07:48:36;103366.53;;;4.39;63.36
32735;BME280;19112;51.076;3.706;2023-01-25T07:51:05;103450.63;;;4.92;63.35
32735;BME280;19112;51.076;3.706;2023-01-25T07:53:42;103427.66;;;4.88;63.18
32735;BME280;19112;51.076;3.706;2023-01-25T07:56:10;103474.03;;;5.09;63.64
32735;BME280;19112;51.076;3.706;2023-01-25T07:58:36;103421.72;;;4.80;63.42
32735;BME280;19112;51.076;3.706;2023-01-25T08:01:13;103383.19;;;4.59;63.40
32735;BME280;19112;51.076;3.706;2023-01-25T08:03:40;103379.97;;;4.53;63.79
32735;BME280;19112;51.076;3.706;2023-01-25T08:06:07;103344.81;;;4.39;63.68
32735;BME280;19112;51.076;3.706;2023-01-25T08:08:36;103440.09;;;4.90;63.49
32735;BME280;19112;51.076;3.706;2023-01-25T08:11:19;103222.09;;;3.72;63.52
32735;BME280;19112;51.076;3.706;2023-01-25T08:13:46;103455.50;;;5.06;63.39
32735;BME280;19112;51.076;3.706;2023-01-25T08:16:17;103192.47;;;3.61;63.51
32735;BME280;19112;51.076;3.706;2023-01-25T08:18:47;103358.88;;;4.50;63.29
32735;BME280;19112;51.076;3.706;2023-01-25T08:21:13;103405.22;;;4.71;63.63
32735;BME280;19112;51.076;3.706;2023-01-25T08:23:39;103293.16;;;4.07;63.39
32735;BME280;19112;51.076;3.706;2023-01-25T08:26:08;103310.88;;;4.20;63.51
32735;BME280;19112;51.076;3.706;2023-01-25T08:28:34;103467.91;;;5.09;63.19
32735;BME280;19112;51.076;3.706;2023-01-25T08:31:16;103185.91;;;3.65;63.64
32735;BME280;19112;51.076;3.706;2023-01-25T08:33:46;103372.16;;;4.70;63.13
32735;BME280;19112;51.076;3.706;2023-01-25T08:36:17;103409.00;;;4.92;63.66
32735;BME280;19112;51.076;3.706;2023-01-25T08:38:45;103247.44;;;4.09;63.15
32735;BME280;19112;51.076;3.706;2023-01-25T08:41:15;103449.22;;;5.13;63.28
32735;BME280;19112;51.076;3.706;2023-01-25T08:43:43;103446.88;;;5.16;63.03
32735;BME280;19112;51.076;3.706;2023-01-25T08:46:09;103309.97;;;4.37;63.16
32735;BME280;19112;51.076;3.706;2023-01-25T08:48:36;103452.25;;;5.17;62.52
32735;BME280;19112;51.076;3.706;2023-01-25T08:51:02;103346.78;;;4.50;62.74
32735;BME280;19112;51.076;3.706;2023-01-25T08:53:31;103143.19;;;3.27;63.22
32735;BME280;19112;51.076;3.706;2023-01-25T08:56:04;103422.28;;;4.95;62.87
32735;BME280;19112;51.076;3.706;2023-01-25T08:58:30;103454.38;;;5.21;62.92
32735;BME280;19112;51.076;3.706;2023-01-25T09:01:01;103264.25;;;4.22;62.32
32735;BME280;19112;51.076;3.706;2023-01-25T09:03:28;103285.78;;;4.29;62.19
32735;BME280;19112;51.076;3.706;2023-01-25T09:05:54;103466.00;;;5.25;62.35
32735;BME280;19112;51.076;3.706;2023-01-25T09:08:20;103461.13;;;5.19;62.43
32735;BME280;19112;51.076;3.706;2023-01-25T09:10:45;103178.13;;;3.39;62.94
32735;BME280;19112;51.076;3.706;2023-01-25T09:13:11;103460.59;;;4.79;63.42
32735;BME280;19112;51.076;3.706;2023-01-25T09:15:37;103456.78;;;4.66;63.79
32735;BME280;19112;51.076;3.706;2023-01-25T09:18:03;103296.69;;;3.47;64.17
32735;BME280;19112;51.076;3.706;2023-01-25T09:20:29;103460.63;;;4.44;64.58
32735;BME280;19112;51.076;3.706;2023-01-25T09:22:55;103350.47;;;3.65;64.38
32735;BME280;19112;51.076;3.706;2023-01-25T09:25:21;103399.38;;;3.70;65.00
32735;BME280;19112;51.076;3.706;2023-01-25T09:27:50;103370.88;;;3.36;65.75
32735;BME280;19112;51.076;3.706;2023-01-25T09:30:17;103467.28;;;3.90;66.24
32735;BME280;19112;51.076;3.706;2023-01-25T09:32:43;103147.13;;;2.29;65.68
32735;BME280;19112;51.076;3.706;2023-01-25T09:35:09;103465.50;;;4.24;65.11
32735;BME280;19112;51.076;3.706;2023-01-25T09:37:35;103467.06;;;4.39;65.12
32735;BME280;19112;51.076;3.706;2023-01-25T09:40:01;103393.63;;;3.89;64.55
32735;BME280;19112;51.076;3.706;2023-01-25T09:42:57;103434.78;;;4.11;64.87
32735;BME280;19112;51.076;3.706;2023-01-25T09:45:35;103252.19;;;3.09;65.10
32735;BME280;19112;51.076;3.706;2023-01-25T09:48:34;103449.59;;;4.29;64.84
32735;BME280;19112;51.076;3.706;2023-01-25T09:51:34;103448.88;;;4.47;64.36
32735;BME280;19112;51.076;3.706;2023-01-25T09:54:07;103373.13;;;4.27;64.29
32735;BME280;19112;51.076;3.706;2023-01-25T09:56:35;103131.41;;;3.13;63.36
32735;BME280;19112;51.076;3.706;2023-01-25T09:59:11;103437.91;;;4.95;62.81
32735;BME280;19112;51.076;3.706;2023-01-25T10:02:01;103391.25;;;4.79;62.91
32735;BME280;19112;51.076;3.706;2023-01-25T10:04:41;103404.56;;;4.82;63.60
32735;BME280;19112;51.076;3.706;2023-01-25T10:07:40;103442.91;;;5.11;63.12
32735;BME280;19112;51.076;3.706;2023-01-25T10:10:25;103432.81;;;5.14;62.79
32735;BME280;19112;51.076;3.706;2023-01-25T10:12:52;103294.03;;;4.42;63.01
32735;BME280;19112;51.076;3.706;2023-01-25T10:15:20;103426.66;;;5.22;62.31
32735;BME280;19112;51.076;3.706;2023-01-25T10:17:59;103317.06;;;4.57;62.78
32735;BME280;19112;51.076;3.706;2023-01-25T10:26:35;103421.59;;;5.23;61.68
32735;BME280;19112;51.076;3.706;2023-01-25T10:29:20;103381.59;;;4.78;62.11
32735;BME280;19112;51.076;3.706;2023-01-25T10:31:48;103193.38;;;3.62;62.45
32735;BME280;19112;51.076;3.706;2023-01-25T10:34:30;103322.13;;;4.55;62.46
32735;BME280;19112;51.076;3.706;2023-01-25T10:37:15;103307.72;;;4.67;62.17
32735;BME280;19112;51.076;3.706;2023-01-25T10:42:43;103344.38;;;4.43;62.80
32735;BME280;19112;51.076;3.706;2023-01-25T10:45:15;103339.44;;;4.46;62.83
32735;BME280;19112;51.076;3.706;2023-01-25T10:47:46;103384.72;;;4.65;63.16
32735;BME280;19112;51.076;3.706;2023-01-25T10:50:44;103252.03;;;4.03;62.52
32735;BME280;19112;51.076;3.706;2023-01-25T10:53:53;103373.06;;;4.62;63.42
32735;BME280;19112;51.076;3.706;2023-01-25T10:56:26;103151.69;;;3.08;63.97
32735;BME280;19112;51.076;3.706;2023-01-25T10:59:24;103356.31;;;4.32;64.12
32735;BME280;19112;51.076;3.706;2023-01-25T11:01:52;103346.22;;;4.09;64.57
32735;BME280;19112;51.076;3.706;2023-01-25T11:04:31;103254.97;;;3.72;64.96
32735;BME280;19112;51.076;3.706;2023-01-25T11:06:58;103341.31;;;4.30;65.33
32735;BME280;19112;51.076;3.706;2023-01-25T11:09:29;103333.31;;;4.54;64.65
32735;BME280;19112;51.076;3.706;2023-01-25T11:14:28;103321.53;;;4.94;63.52
32735;BME280;19112;51.076;3.706;2023-01-25T11:16:57;103206.53;;;4.43;63.34
32735;BME280;19112;51.076;3.706;2023-01-25T11:22:23;103095.97;;;4.02;62.28
32735;BME280;19112;51.076;3.706;2023-01-25T11:24:49;103044.09;;;3.76;62.16
32735;BME280;19112;51.076;3.706;2023-01-25T11:27:24;103294.31;;;5.18;62.48
32735;BME280;19112;51.076;3.706;2023-01-25T11:30:15;103194.44;;;4.71;61.88
32735;BME280;19112;51.076;3.706;2023-01-25T11:32:41;103174.81;;;4.47;62.08
32735;BME280;19112;51.076;3.706;2023-01-25T11:35:31;103284.34;;;5.22;61.92
32735;BME280;19112;51.076;3.706;2023-01-25T11:38:15;103260.56;;;5.28;61.83
32735;BME280;19112;51.076;3.706;2023-01-25T11:47:08;103247.97;;;5.51;61.09
32735;BME280;19112;51.076;3.706;2023-01-25T12:07:05;103211.69;;;5.82;60.62
32735;BME280;19112;51.076;3.706;2023-01-25T12:13:08;103169.03;;;5.71;60.56
32735;BME280;19112;51.076;3.706;2023-01-25T12:28:24;103159.31;;;5.60;60.32
32735;BME280;19112;51.076;3.706;2023-01-25T12:31:02;103146.06;;;5.67;59.44
32735;BME280;19112;51.076;3.706;2023-01-25T12:33:51;102991.63;;;4.72;59.74
32735;BME280;19112;51.076;3.706;2023-01-25T12:36:34;103098.38;;;5.20;59.67
32735;BME280;19112;51.076;3.706;2023-01-25T12:39:13;102931.56;;;4.32;59.63
32735;BME280;19112;51.076;3.706;2023-01-25T12:42:09;103132.72;;;5.54;60.05
32735;BME280;19112;51.076;3.706;2023-01-25T12:45:04;103126.19;;;5.59;60.34
32735;BME280;19112;51.076;3.706;2023-01-25T12:50:54;103103.78;;;5.51;60.06
32735;BME280;19112;51.076;3.706;2023-01-25T12:53:43;103007.66;;;4.96;60.08
32735;BME280;19112;51.076;3.706;2023-01-25T12:59:32;103039.69;;;5.24;60.05
32735;BME280;19112;51.076;3.706;2023-01-25T13:02:46;103081.72;;;5.47;59.95
32735;BME280;19112;51.076;3.706;2023-01-25T13:09:00;103065.66;;;5.62;59.72
32735;BME280;19112;51.076;3.706;2023-01-25T13:11:39;102878.53;;;4.59;59.59
32735;BME280;19112;51.076;3.706;2023-01-25T13:16:49;103010.59;;;5.38;60.15
32735;BME280;19112;51.076;3.706;2023-01-25T13:19:39;103044.94;;;5.63;59.71
32735;BME280;19112;51.076;3.706;2023-01-25T13:22:11;103008.13;;;5.40;59.56
32735;BME280;19112;51.076;3.706;2023-01-25T13:27:30;102924.81;;;4.82;59.69
32735;BME280;19112;51.076;3.706;2023-01-25T13:35:42;102985.56;;;5.01;59.42
32735;BME280;19112;51.076;3.706;2023-01-25T13:38:29;103035.44;;;5.35;59.80
32735;BME280;19112;51.076;3.706;2023-01-25T13:41:13;102973.53;;;4.93;60.01
32735;BME280;19112;51.076;3.706;2023-01-25T13:43:47;102814.53;;;3.84;60.14
32735;BME280;19112;51.076;3.706;2023-01-25T13:46:16;102966.75;;;4.66;60.12
32735;BME280;19112;51.076;3.706;2023-01-25T13:48:55;103039.22;;;5.09;60.43
32735;BME280;19112;51.076;3.706;2023-01-25T13:51:25;102789.88;;;3.89;60.04
32735;BME280;19112;51.076;3.706;2023-01-25T13:53:58;102902.94;;;4.51;60.24
32735;BME280;19112;51.076;3.706;2023-01-25T13:56:31;102998.91;;;5.14;60.03
32735;BME280;19112;51.076;3.706;2023-01-25T13:58:58;103037.56;;;5.39;60.06
32735;BME280;19112;51.076;3.706;2023-01-25T14:01:24;102969.84;;;4.81;60.22
32735;BME280;19112;51.076;3.706;2023-01-25T14:03:58;102932.03;;;4.65;60.46
32735;BME280;19112;51.076;3.706;2023-01-25T14:06:33;102950.28;;;4.57;60.30
32735;BME280;19112;51.076;3.706;2023-01-25T14:09:37;103034.97;;;4.91;60.86
32735;BME280;19112;51.076;3.706;2023-01-25T14:12:01;103029.06;;;4.64;61.99
32735;BME280;19112;51.076;3.706;2023-01-25T14:14:34;102961.41;;;4.45;61.67
32735;BME280;19112;51.076;3.706;2023-01-25T14:19:40;102882.03;;;4.11;61.49
32735;BME280;19112;51.076;3.706;2023-01-25T14:22:29;102850.81;;;4.11;61.31
32735;BME280;19112;51.076;3.706;2023-01-25T14:25:13;103023.47;;;4.89;61.54
32735;BME280;19112;51.076;3.706;2023-01-25T14:27:44;103024.53;;;4.72;61.42
32735;BME280;19112;51.076;3.706;2023-01-25T14:30:36;103026.59;;;4.66;61.82
32735;BME280;19112;51.076;3.706;2023-01-25T14:33:21;102984.59;;;4.53;61.65
32735;BME280;19112;51.076;3.706;2023-01-25T14:35:50;102893.13;;;4.00;61.50
32735;BME280;19112;51.076;3.706;2023-01-25T14:41:27;103026.19;;;4.80;62.11
32735;BME280;19112;51.076;3.706;2023-01-25T14:44:01;102985.56;;;4.63;62.03
32735;BME280;19112;51.076;3.706;2023-01-25T14:46:34;103010.00;;;4.74;62.15